sensor_id;sensor_type;location;lat;lon;timestamp;P1;durP1;ratioP1;P2;durP2;ratioP2
44197;SDS011;30157;55.512;37.764;2023-03-08T00:01:18;38.28;;;16.45;;
44197;SDS011;30157;55.512;37.764;2023-03-08T00:03:55;39.53;;;17.30;;
44197;SDS011;30157;55.512;37.764;2023-03-08T00:06:22;34.63;;;15.77;;
44197;SDS011;30157;55.512;37.764;2023-03-08T00:08:52;33.92;;;15.23;;
44197;SDS011;30157;55.512;37.764;2023-03-08T00:11:19;36.03;;;15.18;;
44197;SDS011;30157;55.512;37.764;2023-03-08T00:13:44;38.28;;;16.35;;
44197;SDS011;30157;55.512;37.764;2023-03-08T00:16:11;38.80;;;17.00;;
44197;SDS011;30157;55.512;37.764;2023-03-08T00:18:38;36.03;;;15.32;;
44197;SDS011;30157;55.512;37.764;2023-03-08T00:21:05;37.03;;;14.70;;
44197;SDS011;30157;55.512;37.764;2023-03-08T00:23:32;39.85;;;16.27;;
44197;SDS011;30157;55.512;37.764;2023-03-08T00:25:58;38.83;;;16.02;;
44197;SDS011;30157;55.512;37.764;2023-03-08T00:28:24;42.72;;;16.65;;
44197;SDS011;30157;55.512;37.764;2023-03-08T00:30:56;38.00;;;16.85;;
44197;SDS011;30157;55.512;37.764;2023-03-08T00:33:26;50.08;;;17.15;;
44197;SDS011;30157;55.512;37.764;2023-03-08T00:35:59;44.47;;;15.88;;
44197;SDS011;30157;55.512;37.764;2023-03-08T00:38:34;46.35;;;17.35;;
44197;SDS011;30157;55.512;37.764;2023-03-08T00:41:01;43.42;;;16.15;;
44197;SDS011;30157;55.512;37.764;2023-03-08T00:43:29;40.03;;;15.90;;
44197;SDS011;30157;55.512;37.764;2023-03-08T00:45:55;32.72;;;14.23;;
44197;SDS011;30157;55.512;37.764;2023-03-08T00:48:22;35.35;;;15.15;;
44197;SDS011;30157;55.512;37.764;2023-03-08T00:50:48;38.80;;;15.23;;
44197;SDS011;30157;55.512;37.764;2023-03-08T00:53:14;46.10;;;16.95;;
44197;SDS011;30157;55.512;37.764;2023-03-08T00:55:53;42.50;;;15.85;;
44197;SDS011;30157;55.512;37.764;2023-03-08T00:58:22;38.30;;;15.68;;
44197;SDS011;30157;55.512;37.764;2023-03-08T01:00:50;37.97;;;14.60;;
44197;SDS011;30157;55.512;37.764;2023-03-08T01:03:16;36.45;;;14.25;;
44197;SDS011;30157;55.512;37.764;2023-03-08T01:05:44;32.40;;;14.35;;
44197;SDS011;30157;55.512;37.764;2023-03-08T01:08:11;36.63;;;15.38;;
44197;SDS011;30157;55.512;37.764;2023-03-08T01:10:38;37.88;;;15.77;;
44197;SDS011;30157;55.512;37.764;2023-03-08T01:13:05;41.67;;;15.73;;
44197;SDS011;30157;55.512;37.764;2023-03-08T01:15:36;35.97;;;14.70;;
44197;SDS011;30157;55.512;37.764;2023-03-08T01:18:05;45.10;;;15.35;;
44197;SDS011;30157;55.512;37.764;2023-03-08T01:20:31;38.03;;;14.77;;
44197;SDS011;30157;55.512;37.764;2023-03-08T01:22:57;37.65;;;14.73;;
44197;SDS011;30157;55.512;37.764;2023-03-08T01:25:23;40.40;;;15.13;;
44197;SDS011;30157;55.512;37.764;2023-03-08T01:27:49;34.25;;;13.93;;
44197;SDS011;30157;55.512;37.764;2023-03-08T01:30:15;33.05;;;14.38;;
44197;SDS011;30157;55.512;37.764;2023-03-08T01:32:41;36.00;;;14.18;;
44197;SDS011;30157;55.512;37.764;2023-03-08T01:35:07;39.90;;;15.05;;
44197;SDS011;30157;55.512;37.764;2023-03-08T01:37:33;33.15;;;13.48;;
44197;SDS011;30157;55.512;37.764;2023-03-08T01:39:59;34.30;;;13.88;;
44197;SDS011;30157;55.512;37.764;2023-03-08T01:42:26;28.23;;;12.95;;
44197;SDS011;30157;55.512;37.764;2023-03-08T01:44:57;30.23;;;13.38;;
44197;SDS011;30157;55.512;37.764;2023-03-08T01:47:29;32.33;;;13.70;;
44197;SDS011;30157;55.512;37.764;2023-03-08T01:50:13;37.83;;;13.38;;
44197;SDS011;30157;55.512;37.764;2023-03-08T01:52:44;36.38;;;13.15;;
44197;SDS011;30157;55.512;37.764;2023-03-08T01:55:18;30.85;;;12.52;;
44197;SDS011;30157;55.512;37.764;2023-03-08T01:57:45;28.88;;;11.80;;
44197;SDS011;30157;55.512;37.764;2023-03-08T02:00:18;32.28;;;12.50;;
44197;SDS011;30157;55.512;37.764;2023-03-08T02:03:00;30.95;;;13.27;;
44197;SDS011;30157;55.512;37.764;2023-03-08T02:05:32;27.38;;;13.32;;
44197;SDS011;30157;55.512;37.764;2023-03-08T02:08:08;31.05;;;12.80;;
44197;SDS011;30157;55.512;37.764;2023-03-08T02:10:36;27.95;;;11.80;;
44197;SDS011;30157;55.512;37.764;2023-03-08T02:13:23;31.02;;;13.23;;
44197;SDS011;30157;55.512;37.764;2023-03-08T02:15:49;27.25;;;12.45;;
44197;SDS011;30157;55.512;37.764;2023-03-08T02:18:21;34.70;;;13.63;;
44197;SDS011;30157;55.512;37.764;2023-03-08T02:20:47;26.63;;;12.63;;
44197;SDS011;30157;55.512;37.764;2023-03-08T02:25:40;25.20;;;12.20;;
44197;SDS011;30157;55.512;37.764;2023-03-08T02:28:14;30.98;;;12.80;;
44197;SDS011;30157;55.512;37.764;2023-03-08T02:30:40;28.55;;;12.65;;
44197;SDS011;30157;55.512;37.764;2023-03-08T02:33:06;26.42;;;12.85;;
44197;SDS011;30157;55.512;37.764;2023-03-08T02:35:31;27.15;;;12.70;;
44197;SDS011;30157;55.512;37.764;2023-03-08T02:37:57;28.20;;;12.98;;
44197;SDS011;30157;55.512;37.764;2023-03-08T02:40:23;31.63;;;12.65;;
44197;SDS011;30157;55.512;37.764;2023-03-08T02:42:49;24.20;;;12.15;;
44197;SDS011;30157;55.512;37.764;2023-03-08T02:45:15;29.20;;;13.77;;
44197;SDS011;30157;55.512;37.764;2023-03-08T02:47:40;28.52;;;13.90;;
44197;SDS011;30157;55.512;37.764;2023-03-08T02:50:11;29.58;;;13.38;;
44197;SDS011;30157;55.512;37.764;2023-03-08T02:52:37;31.90;;;13.40;;
44197;SDS011;30157;55.512;37.764;2023-03-08T02:55:03;32.00;;;13.98;;
44197;SDS011;30157;55.512;37.764;2023-03-08T02:57:29;33.65;;;14.43;;
44197;SDS011;30157;55.512;37.764;2023-03-08T02:59:55;29.80;;;13.82;;
44197;SDS011;30157;55.512;37.764;2023-03-08T03:02:21;38.75;;;17.48;;
44197;SDS011;30157;55.512;37.764;2023-03-08T03:04:47;38.92;;;15.40;;
44197;SDS011;30157;55.512;37.764;2023-03-08T03:07:13;36.90;;;15.48;;
44197;SDS011;30157;55.512;37.764;2023-03-08T03:09:38;30.70;;;12.38;;
44197;SDS011;30157;55.512;37.764;2023-03-08T03:12:04;31.95;;;13.02;;
44197;SDS011;30157;55.512;37.764;2023-03-08T03:14:36;28.25;;;11.60;;
44197;SDS011;30157;55.512;37.764;2023-03-08T03:17:02;30.17;;;11.88;;
44197;SDS011;30157;55.512;37.764;2023-03-08T03:19:27;28.33;;;10.30;;
44197;SDS011;30157;55.512;37.764;2023-03-08T03:21:53;29.75;;;11.02;;
44197;SDS011;30157;55.512;37.764;2023-03-08T03:24:19;24.98;;;10.55;;
44197;SDS011;30157;55.512;37.764;2023-03-08T03:26:52;22.85;;;9.98;;
44197;SDS011;30157;55.512;37.764;2023-03-08T03:29:19;28.92;;;11.57;;
44197;SDS011;30157;55.512;37.764;2023-03-08T03:31:49;28.10;;;10.65;;
44197;SDS011;30157;55.512;37.764;2023-03-08T03:34:16;28.35;;;10.30;;
44197;SDS011;30157;55.512;37.764;2023-03-08T03:36:44;29.98;;;11.23;;
44197;SDS011;30157;55.512;37.764;2023-03-08T03:39:10;26.60;;;11.48;;
44197;SDS011;30157;55.512;37.764;2023-03-08T03:41:37;25.42;;;10.50;;
44197;SDS011;30157;55.512;37.764;2023-03-08T03:44:08;28.02;;;12.25;;
44197;SDS011;30157;55.512;37.764;2023-03-08T03:46:34;30.55;;;13.10;;
44197;SDS011;30157;55.512;37.764;2023-03-08T03:49:01;28.92;;;13.02;;
44197;SDS011;30157;55.512;37.764;2023-03-08T03:51:33;27.85;;;12.25;;
44197;SDS011;30157;55.512;37.764;2023-03-08T03:54:21;32.50;;;11.85;;
44197;SDS011;30157;55.512;37.764;2023-03-08T03:56:47;29.48;;;11.80;;
44197;SDS011;30157;55.512;37.764;2023-03-08T03:59:13;28.92;;;11.93;;
44197;SDS011;30157;55.512;37.764;2023-03-08T04:01:39;29.67;;;11.77;;
44197;SDS011;30157;55.512;37.764;2023-03-08T04:04:14;33.35;;;12.18;;
44197;SDS011;30157;55.512;37.764;2023-03-08T04:06:42;27.63;;;10.70;;
44197;SDS011;30157;55.512;37.764;2023-03-08T04:09:13;30.10;;;11.70;;
44197;SDS011;30157;55.512;37.764;2023-03-08T04:11:43;34.53;;;12.77;;
44197;SDS011;30157;55.512;37.764;2023-03-08T04:14:14;28.45;;;12.48;;
44197;SDS011;30157;55.512;37.764;2023-03-08T04:16:40;28.50;;;11.65;;
44197;SDS011;30157;55.512;37.764;2023-03-08T04:19:13;28.95;;;12.60;;
44197;SDS011;30157;55.512;37.764;2023-03-08T04:21:46;31.67;;;11.93;;
44197;SDS011;30157;55.512;37.764;2023-03-08T04:24:14;32.78;;;12.25;;
44197;SDS011;30157;55.512;37.764;2023-03-08T04:26:39;32.47;;;12.35;;
44197;SDS011;30157;55.512;37.764;2023-03-08T04:29:05;31.88;;;11.73;;
44197;SDS011;30157;55.512;37.764;2023-03-08T04:31:34;30.58;;;12.02;;
44197;SDS011;30157;55.512;37.764;2023-03-08T04:34:04;32.80;;;12.60;;
44197;SDS011;30157;55.512;37.764;2023-03-08T04:36:30;33.53;;;13.15;;
44197;SDS011;30157;55.512;37.764;2023-03-08T04:38:58;32.58;;;13.13;;
44197;SDS011;30157;55.512;37.764;2023-03-08T04:41:25;33.55;;;14.00;;
44197;SDS011;30157;55.512;37.764;2023-03-08T04:44:13;32.55;;;14.48;;
44197;SDS011;30157;55.512;37.764;2023-03-08T04:46:45;32.85;;;13.95;;
44197;SDS011;30157;55.512;37.764;2023-03-08T04:49:15;32.40;;;13.57;;
44197;SDS011;30157;55.512;37.764;2023-03-08T04:51:45;32.65;;;13.27;;
44197;SDS011;30157;55.512;37.764;2023-03-08T04:54:11;30.27;;;13.10;;
44197;SDS011;30157;55.512;37.764;2023-03-08T04:56:43;28.92;;;12.60;;
44197;SDS011;30157;55.512;37.764;2023-03-08T04:59:10;29.42;;;13.70;;
44197;SDS011;30157;55.512;37.764;2023-03-08T05:01:36;29.50;;;13.55;;
44197;SDS011;30157;55.512;37.764;2023-03-08T05:04:01;34.88;;;14.80;;
44197;SDS011;30157;55.512;37.764;2023-03-08T05:06:33;31.95;;;13.45;;
44197;SDS011;30157;55.512;37.764;2023-03-08T05:08:59;34.97;;;14.40;;
44197;SDS011;30157;55.512;37.764;2023-03-08T05:11:27;30.95;;;13.77;;
44197;SDS011;30157;55.512;37.764;2023-03-08T05:13:54;31.52;;;13.93;;
44197;SDS011;30157;55.512;37.764;2023-03-08T05:16:23;30.40;;;14.50;;
44197;SDS011;30157;55.512;37.764;2023-03-08T05:18:50;26.88;;;11.43;;
44197;SDS011;30157;55.512;37.764;2023-03-08T05:21:19;26.50;;;12.57;;
44197;SDS011;30157;55.512;37.764;2023-03-08T05:23:50;29.98;;;13.05;;
44197;SDS011;30157;55.512;37.764;2023-03-08T05:26:18;26.85;;;12.82;;
44197;SDS011;30157;55.512;37.764;2023-03-08T05:28:44;23.25;;;9.88;;
44197;SDS011;30157;55.512;37.764;2023-03-08T05:31:17;20.65;;;9.23;;
44197;SDS011;30157;55.512;37.764;2023-03-08T05:33:47;23.38;;;11.90;;
44197;SDS011;30157;55.512;37.764;2023-03-08T05:36:18;21.52;;;10.80;;
44197;SDS011;30157;55.512;37.764;2023-03-08T05:38:46;27.48;;;12.27;;
44197;SDS011;30157;55.512;37.764;2023-03-08T05:41:13;20.67;;;10.40;;
44197;SDS011;30157;55.512;37.764;2023-03-08T05:43:46;19.65;;;9.35;;
44197;SDS011;30157;55.512;37.764;2023-03-08T05:46:13;18.70;;;10.13;;
44197;SDS011;30157;55.512;37.764;2023-03-08T05:48:43;19.40;;;8.88;;
44197;SDS011;30157;55.512;37.764;2023-03-08T05:51:12;18.50;;;9.32;;
44197;SDS011;30157;55.512;37.764;2023-03-08T05:53:40;17.98;;;8.52;;
44197;SDS011;30157;55.512;37.764;2023-03-08T05:56:25;19.55;;;10.10;;
44197;SDS011;30157;55.512;37.764;2023-03-08T05:58:59;17.70;;;8.38;;
44197;SDS011;30157;55.512;37.764;2023-03-08T06:01:26;14.85;;;8.00;;
44197;SDS011;30157;55.512;37.764;2023-03-08T06:03:57;15.52;;;8.77;;
44197;SDS011;30157;55.512;37.764;2023-03-08T06:06:27;14.88;;;7.45;;
44197;SDS011;30157;55.512;37.764;2023-03-08T06:08:57;11.10;;;6.30;;
44197;SDS011;30157;55.512;37.764;2023-03-08T06:11:23;17.02;;;8.55;;
44197;SDS011;30157;55.512;37.764;2023-03-08T06:13:52;15.30;;;7.57;;
44197;SDS011;30157;55.512;37.764;2023-03-08T06:16:19;15.70;;;8.65;;
44197;SDS011;30157;55.512;37.764;2023-03-08T06:18:45;13.80;;;7.90;;
44197;SDS011;30157;55.512;37.764;2023-03-08T06:21:13;15.80;;;8.32;;
44197;SDS011;30157;55.512;37.764;2023-03-08T06:23:41;14.95;;;7.47;;
44197;SDS011;30157;55.512;37.764;2023-03-08T06:26:08;14.52;;;7.47;;
44197;SDS011;30157;55.512;37.764;2023-03-08T06:28:37;14.80;;;7.18;;
44197;SDS011;30157;55.512;37.764;2023-03-08T06:31:05;16.65;;;7.78;;
44197;SDS011;30157;55.512;37.764;2023-03-08T06:33:33;14.60;;;7.88;;
44197;SDS011;30157;55.512;37.764;2023-03-08T06:36:04;13.73;;;7.25;;
44197;SDS011;30157;55.512;37.764;2023-03-08T06:38:33;15.38;;;7.35;;
44197;SDS011;30157;55.512;37.764;2023-03-08T06:41:00;14.77;;;8.18;;
44197;SDS011;30157;55.512;37.764;2023-03-08T06:43:27;17.17;;;8.75;;
44197;SDS011;30157;55.512;37.764;2023-03-08T06:45:53;13.23;;;6.88;;
44197;SDS011;30157;55.512;37.764;2023-03-08T06:48:20;12.55;;;7.43;;
44197;SDS011;30157;55.512;37.764;2023-03-08T06:50:46;16.65;;;8.23;;
44197;SDS011;30157;55.512;37.764;2023-03-08T06:53:13;10.65;;;5.85;;
44197;SDS011;30157;55.512;37.764;2023-03-08T06:55:56;11.65;;;6.22;;
44197;SDS011;30157;55.512;37.764;2023-03-08T06:58:22;12.90;;;7.22;;
44197;SDS011;30157;55.512;37.764;2023-03-08T07:00:48;12.02;;;6.15;;
44197;SDS011;30157;55.512;37.764;2023-03-08T07:03:14;12.40;;;6.57;;
44197;SDS011;30157;55.512;37.764;2023-03-08T07:05:40;10.98;;;5.78;;
44197;SDS011;30157;55.512;37.764;2023-03-08T07:08:06;15.20;;;7.80;;
44197;SDS011;30157;55.512;37.764;2023-03-08T07:10:32;11.07;;;6.65;;
44197;SDS011;30157;55.512;37.764;2023-03-08T07:12:58;12.15;;;6.90;;
44197;SDS011;30157;55.512;37.764;2023-03-08T07:15:24;11.90;;;7.30;;
44197;SDS011;30157;55.512;37.764;2023-03-08T07:17:51;11.57;;;6.18;;
44197;SDS011;30157;55.512;37.764;2023-03-08T07:20:20;10.35;;;5.13;;
44197;SDS011;30157;55.512;37.764;2023-03-08T07:22:46;11.55;;;5.85;;
44197;SDS011;30157;55.512;37.764;2023-03-08T07:25:13;11.02;;;5.90;;
44197;SDS011;30157;55.512;37.764;2023-03-08T07:27:39;11.63;;;6.40;;
44197;SDS011;30157;55.512;37.764;2023-03-08T07:30:05;11.38;;;6.97;;
44197;SDS011;30157;55.512;37.764;2023-03-08T07:32:35;9.15;;;4.57;;
44197;SDS011;30157;55.512;37.764;2023-03-08T07:35:04;9.63;;;4.90;;
44197;SDS011;30157;55.512;37.764;2023-03-08T07:37:31;12.20;;;6.13;;
44197;SDS011;30157;55.512;37.764;2023-03-08T07:39:56;10.10;;;6.03;;
44197;SDS011;30157;55.512;37.764;2023-03-08T07:42:22;10.73;;;5.28;;
44197;SDS011;30157;55.512;37.764;2023-03-08T07:44:53;10.00;;;4.78;;
44197;SDS011;30157;55.512;37.764;2023-03-08T07:47:19;9.55;;;5.90;;
44197;SDS011;30157;55.512;37.764;2023-03-08T07:49:46;10.32;;;6.03;;
44197;SDS011;30157;55.512;37.764;2023-03-08T07:52:12;12.63;;;6.75;;
44197;SDS011;30157;55.512;37.764;2023-03-08T07:54:38;9.48;;;5.78;;
44197;SDS011;30157;55.512;37.764;2023-03-08T07:57:06;10.32;;;5.22;;
44197;SDS011;30157;55.512;37.764;2023-03-08T07:59:38;7.88;;;4.20;;
44197;SDS011;30157;55.512;37.764;2023-03-08T08:02:04;9.35;;;5.80;;
44197;SDS011;30157;55.512;37.764;2023-03-08T08:04:29;8.20;;;5.00;;
44197;SDS011;30157;55.512;37.764;2023-03-08T08:06:55;9.98;;;5.90;;
44197;SDS011;30157;55.512;37.764;2023-03-08T08:09:23;8.88;;;5.97;;
44197;SDS011;30157;55.512;37.764;2023-03-08T08:11:49;9.32;;;4.40;;
44197;SDS011;30157;55.512;37.764;2023-03-08T08:14:14;8.20;;;5.32;;
44197;SDS011;30157;55.512;37.764;2023-03-08T08:16:40;9.93;;;6.22;;
44197;SDS011;30157;55.512;37.764;2023-03-08T08:19:06;9.65;;;5.72;;
44197;SDS011;30157;55.512;37.764;2023-03-08T08:21:34;10.98;;;6.63;;
44197;SDS011;30157;55.512;37.764;2023-03-08T08:23:59;7.00;;;4.20;;
44197;SDS011;30157;55.512;37.764;2023-03-08T08:26:26;8.13;;;5.00;;
44197;SDS011;30157;55.512;37.764;2023-03-08T08:28:52;10.57;;;5.53;;
44197;SDS011;30157;55.512;37.764;2023-03-08T08:31:22;9.50;;;5.03;;
44197;SDS011;30157;55.512;37.764;2023-03-08T08:33:53;10.73;;;5.95;;
44197;SDS011;30157;55.512;37.764;2023-03-08T08:36:19;10.63;;;6.00;;
44197;SDS011;30157;55.512;37.764;2023-03-08T08:38:45;8.88;;;5.30;;
44197;SDS011;30157;55.512;37.764;2023-03-08T08:41:12;9.85;;;5.30;;
44197;SDS011;30157;55.512;37.764;2023-03-08T08:43:39;8.68;;;5.15;;
44197;SDS011;30157;55.512;37.764;2023-03-08T08:46:06;8.82;;;5.07;;
44197;SDS011;30157;55.512;37.764;2023-03-08T08:48:32;9.75;;;6.20;;
44197;SDS011;30157;55.512;37.764;2023-03-08T08:50:59;10.23;;;5.72;;
44197;SDS011;30157;55.512;37.764;2023-03-08T08:53:26;11.73;;;7.18;;
44197;SDS011;30157;55.512;37.764;2023-03-08T08:55:52;12.27;;;7.28;;
44197;SDS011;30157;55.512;37.764;2023-03-08T08:58:18;12.57;;;7.40;;
44197;SDS011;30157;55.512;37.764;2023-03-08T09:00:44;12.02;;;7.00;;
44197;SDS011;30157;55.512;37.764;2023-03-08T09:03:10;12.10;;;7.43;;
44197;SDS011;30157;55.512;37.764;2023-03-08T09:05:40;10.88;;;6.70;;
44197;SDS011;30157;55.512;37.764;2023-03-08T09:08:07;12.88;;;7.22;;
44197;SDS011;30157;55.512;37.764;2023-03-08T09:10:34;13.30;;;8.25;;
44197;SDS011;30157;55.512;37.764;2023-03-08T09:13:01;13.48;;;7.72;;
44197;SDS011;30157;55.512;37.764;2023-03-08T09:15:27;11.85;;;7.47;;
44197;SDS011;30157;55.512;37.764;2023-03-08T09:17:53;13.57;;;8.40;;
44197;SDS011;30157;55.512;37.764;2023-03-08T09:20:19;13.05;;;8.05;;
44197;SDS011;30157;55.512;37.764;2023-03-08T09:22:45;13.90;;;8.98;;
44197;SDS011;30157;55.512;37.764;2023-03-08T09:25:11;11.82;;;7.85;;
44197;SDS011;30157;55.512;37.764;2023-03-08T09:27:40;11.20;;;7.78;;
44197;SDS011;30157;55.512;37.764;2023-03-08T09:30:10;13.18;;;7.63;;
44197;SDS011;30157;55.512;37.764;2023-03-08T09:32:37;11.88;;;6.95;;
44197;SDS011;30157;55.512;37.764;2023-03-08T09:35:03;15.85;;;7.82;;
44197;SDS011;30157;55.512;37.764;2023-03-08T09:37:31;12.30;;;8.20;;
44197;SDS011;30157;55.512;37.764;2023-03-08T09:39:57;14.18;;;8.90;;
44197;SDS011;30157;55.512;37.764;2023-03-08T09:42:30;14.93;;;8.32;;
44197;SDS011;30157;55.512;37.764;2023-03-08T09:53:20;15.27;;;8.80;;
44197;SDS011;30157;55.512;37.764;2023-03-08T09:56:03;15.60;;;8.90;;
44197;SDS011;30157;55.512;37.764;2023-03-08T09:58:41;15.38;;;7.57;;
44197;SDS011;30157;55.512;37.764;2023-03-08T10:01:14;11.65;;;6.28;;
44197;SDS011;30157;55.512;37.764;2023-03-08T10:15:02;18.85;;;9.82;;
44197;SDS011;30157;55.512;37.764;2023-03-08T10:17:45;16.85;;;9.32;;
44197;SDS011;30157;55.512;37.764;2023-03-08T10:20:16;19.80;;;10.57;;
44197;SDS011;30157;55.512;37.764;2023-03-08T10:22:43;20.95;;;11.10;;
44197;SDS011;30157;55.512;37.764;2023-03-08T10:25:24;19.65;;;11.88;;
44197;SDS011;30157;55.512;37.764;2023-03-08T10:27:57;19.75;;;10.27;;
44197;SDS011;30157;55.512;37.764;2023-03-08T10:30:26;21.38;;;12.35;;
44197;SDS011;30157;55.512;37.764;2023-03-08T10:33:05;17.95;;;10.35;;
44197;SDS011;30157;55.512;37.764;2023-03-08T10:35:36;18.27;;;10.30;;
44197;SDS011;30157;55.512;37.764;2023-03-08T10:38:24;18.88;;;10.40;;
44197;SDS011;30157;55.512;37.764;2023-03-08T10:41:05;19.67;;;10.32;;
44197;SDS011;30157;55.512;37.764;2023-03-08T10:43:40;16.95;;;9.98;;
44197;SDS011;30157;55.512;37.764;2023-03-08T10:46:14;16.30;;;8.30;;
44197;SDS011;30157;55.512;37.764;2023-03-08T10:48:42;20.52;;;11.77;;
44197;SDS011;30157;55.512;37.764;2023-03-08T10:51:15;17.77;;;10.23;;
44197;SDS011;30157;55.512;37.764;2023-03-08T10:53:58;16.35;;;9.90;;
44197;SDS011;30157;55.512;37.764;2023-03-08T10:59:03;20.42;;;12.35;;
44197;SDS011;30157;55.512;37.764;2023-03-08T11:04:14;19.50;;;10.90;;
44197;SDS011;30157;55.512;37.764;2023-03-08T11:06:41;16.92;;;8.40;;
44197;SDS011;30157;55.512;37.764;2023-03-08T11:09:27;18.40;;;10.98;;
44197;SDS011;30157;55.512;37.764;2023-03-08T11:11:58;19.40;;;11.77;;
44197;SDS011;30157;55.512;37.764;2023-03-08T11:14:25;17.08;;;10.13;;
44197;SDS011;30157;55.512;37.764;2023-03-08T11:27:40;16.48;;;9.73;;
44197;SDS011;30157;55.512;37.764;2023-03-08T11:30:31;18.55;;;11.05;;
44197;SDS011;30157;55.512;37.764;2023-03-08T11:35:58;15.45;;;8.38;;
44197;SDS011;30157;55.512;37.764;2023-03-08T11:38:43;16.60;;;8.68;;
44197;SDS011;30157;55.512;37.764;2023-03-08T11:47:39;16.60;;;9.38;;
44197;SDS011;30157;55.512;37.764;2023-03-08T11:55:49;18.10;;;10.73;;
44197;SDS011;30157;55.512;37.764;2023-03-08T11:58:21;16.27;;;7.70;;
44197;SDS011;30157;55.512;37.764;2023-03-08T12:00:53;18.27;;;10.48;;
44197;SDS011;30157;55.512;37.764;2023-03-08T12:03:27;16.50;;;10.73;;
44197;SDS011;30157;55.512;37.764;2023-03-08T12:08:56;18.67;;;11.48;;
44197;SDS011;30157;55.512;37.764;2023-03-08T12:12:26;18.15;;;11.93;;
44197;SDS011;30157;55.512;37.764;2023-03-08T12:14:28;20.60;;;13.18;;
44197;SDS011;30157;55.512;37.764;2023-03-08T12:19:39;18.42;;;10.55;;
44197;SDS011;30157;55.512;37.764;2023-03-08T12:22:22;20.75;;;11.98;;
44197;SDS011;30157;55.512;37.764;2023-03-08T12:25:23;20.83;;;12.63;;
44197;SDS011;30157;55.512;37.764;2023-03-08T12:33:30;19.77;;;11.77;;
44197;SDS011;30157;55.512;37.764;2023-03-08T12:35:58;19.73;;;12.15;;
44197;SDS011;30157;55.512;37.764;2023-03-08T12:38:33;20.48;;;11.93;;
44197;SDS011;30157;55.512;37.764;2023-03-08T12:41:17;19.98;;;11.40;;
44197;SDS011;30157;55.512;37.764;2023-03-08T12:44:00;20.83;;;12.80;;
44197;SDS011;30157;55.512;37.764;2023-03-08T12:46:42;19.05;;;11.77;;
44197;SDS011;30157;55.512;37.764;2023-03-08T12:49:18;19.85;;;10.70;;
44197;SDS011;30157;55.512;37.764;2023-03-08T12:52:03;19.48;;;9.43;;
44197;SDS011;30157;55.512;37.764;2023-03-08T12:57:28;16.02;;;9.43;;
44197;SDS011;30157;55.512;37.764;2023-03-08T12:59:58;19.58;;;9.30;;
44197;SDS011;30157;55.512;37.764;2023-03-08T13:02:31;19.60;;;10.32;;
44197;SDS011;30157;55.512;37.764;2023-03-08T13:07:35;19.40;;;11.80;;
44197;SDS011;30157;55.512;37.764;2023-03-08T13:10:22;20.55;;;10.18;;
44197;SDS011;30157;55.512;37.764;2023-03-08T13:15:36;18.27;;;11.52;;
44197;SDS011;30157;55.512;37.764;2023-03-08T13:28:25;19.92;;;10.55;;
44197;SDS011;30157;55.512;37.764;2023-03-08T13:30:57;21.40;;;12.77;;
44197;SDS011;30157;55.512;37.764;2023-03-08T13:33:26;16.40;;;8.43;;
44197;SDS011;30157;55.512;37.764;2023-03-08T13:36:03;21.20;;;12.70;;
44197;SDS011;30157;55.512;37.764;2023-03-08T13:39:02;17.55;;;10.85;;
44197;SDS011;30157;55.512;37.764;2023-03-08T13:41:34;16.83;;;10.13;;
44197;SDS011;30157;55.512;37.764;2023-03-08T13:44:26;18.88;;;11.18;;
44197;SDS011;30157;55.512;37.764;2023-03-08T13:46:59;16.95;;;10.05;;
44197;SDS011;30157;55.512;37.764;2023-03-08T13:49:31;19.35;;;11.93;;
44197;SDS011;30157;55.512;37.764;2023-03-08T13:52:02;21.13;;;11.80;;
44197;SDS011;30157;55.512;37.764;2023-03-08T13:54:41;19.98;;;11.13;;
44197;SDS011;30157;55.512;37.764;2023-03-08T13:57:22;19.52;;;10.68;;
44197;SDS011;30157;55.512;37.764;2023-03-08T13:59:52;22.75;;;11.68;;
44197;SDS011;30157;55.512;37.764;2023-03-08T14:02:22;19.60;;;10.70;;
44197;SDS011;30157;55.512;37.764;2023-03-08T14:04:50;18.98;;;11.48;;
44197;SDS011;30157;55.512;37.764;2023-03-08T14:07:20;19.55;;;10.30;;
44197;SDS011;30157;55.512;37.764;2023-03-08T14:09:50;24.80;;;12.57;;
44197;SDS011;30157;55.512;37.764;2023-03-08T14:12:20;21.55;;;11.70;;
44197;SDS011;30157;55.512;37.764;2023-03-08T14:14:50;24.58;;;13.23;;
44197;SDS011;30157;55.512;37.764;2023-03-08T14:17:22;25.40;;;13.93;;
44197;SDS011;30157;55.512;37.764;2023-03-08T14:20:02;19.48;;;10.70;;
44197;SDS011;30157;55.512;37.764;2023-03-08T14:22:44;23.98;;;13.38;;
44197;SDS011;30157;55.512;37.764;2023-03-08T14:25:20;23.73;;;13.25;;
44197;SDS011;30157;55.512;37.764;2023-03-08T14:27:46;24.75;;;12.70;;
44197;SDS011;30157;55.512;37.764;2023-03-08T14:30:14;16.92;;;8.48;;
44197;SDS011;30157;55.512;37.764;2023-03-08T14:32:56;24.02;;;13.20;;
44197;SDS011;30157;55.512;37.764;2023-03-08T14:35:44;25.58;;;12.63;;
44197;SDS011;30157;55.512;37.764;2023-03-08T14:38:20;20.83;;;10.60;;
44197;SDS011;30157;55.512;37.764;2023-03-08T14:40:49;25.58;;;13.85;;
44197;SDS011;30157;55.512;37.764;2023-03-08T14:43:19;23.15;;;12.55;;
44197;SDS011;30157;55.512;37.764;2023-03-08T14:45:59;24.70;;;13.15;;
44197;SDS011;30157;55.512;37.764;2023-03-08T14:48:31;21.77;;;10.82;;
44197;SDS011;30157;55.512;37.764;2023-03-08T14:51:05;23.80;;;14.15;;
44197;SDS011;30157;55.512;37.764;2023-03-08T14:53:59;20.55;;;10.43;;
44197;SDS011;30157;55.512;37.764;2023-03-08T14:56:32;22.00;;;12.35;;
44197;SDS011;30157;55.512;37.764;2023-03-08T14:58:59;18.35;;;10.50;;
44197;SDS011;30157;55.512;37.764;2023-03-08T15:03:55;17.77;;;8.40;;
44197;SDS011;30157;55.512;37.764;2023-03-08T15:06:24;23.08;;;12.02;;
44197;SDS011;30157;55.512;37.764;2023-03-08T15:08:53;26.40;;;14.10;;
44197;SDS011;30157;55.512;37.764;2023-03-08T15:11:19;22.73;;;12.10;;
44197;SDS011;30157;55.512;37.764;2023-03-08T15:13:46;25.85;;;12.98;;
44197;SDS011;30157;55.512;37.764;2023-03-08T15:16:12;24.98;;;12.90;;
44197;SDS011;30157;55.512;37.764;2023-03-08T15:18:38;24.20;;;12.43;;
44197;SDS011;30157;55.512;37.764;2023-03-08T15:21:03;18.17;;;9.15;;
44197;SDS011;30157;55.512;37.764;2023-03-08T15:23:30;28.65;;;14.80;;
44197;SDS011;30157;55.512;37.764;2023-03-08T15:25:59;14.77;;;7.25;;
44197;SDS011;30157;55.512;37.764;2023-03-08T15:28:25;22.75;;;11.68;;
44197;SDS011;30157;55.512;37.764;2023-03-08T15:30:51;19.92;;;9.80;;
44197;SDS011;30157;55.512;37.764;2023-03-08T15:33:19;24.83;;;13.55;;
44197;SDS011;30157;55.512;37.764;2023-03-08T15:35:48;27.00;;;13.82;;
44197;SDS011;30157;55.512;37.764;2023-03-08T15:38:15;25.27;;;13.30;;
44197;SDS011;30157;55.512;37.764;2023-03-08T15:40:42;31.40;;;16.90;;
44197;SDS011;30157;55.512;37.764;2023-03-08T15:43:08;23.13;;;10.65;;
44197;SDS011;30157;55.512;37.764;2023-03-08T15:45:34;27.35;;;14.70;;
44197;SDS011;30157;55.512;37.764;2023-03-08T15:48:04;27.42;;;14.65;;
44197;SDS011;30157;55.512;37.764;2023-03-08T15:50:32;21.25;;;10.65;;
44197;SDS011;30157;55.512;37.764;2023-03-08T15:52:58;29.08;;;15.60;;
44197;SDS011;30157;55.512;37.764;2023-03-08T15:55:26;23.73;;;13.25;;